Time;durP1;ratioP1;P1;durP2;ratioP2;P2;SDS_P1;SDS_P2;PMS_P1;PMS_P2;Temp;Humidity;BMP_temperature;BMP_pressure;BME280_temperature;BME280_humidity;BME280_pressure;Samples;Min_cycle;Max_cycle;Signal;HPM_P1;HPM_P2
2022/05/27 00:02:22;;;;;;;7.40;4.70;;;;;;;13.77;100.00;100908.00;105938;1279;61256;-85
2022/05/27 00:04:49;;;;;;;8.20;4.10;;;;;;;13.76;100.00;100904.71;105843;1280;63460;-85
2022/05/27 00:07:16;;;;;;;10.50;5.30;;;;;;;13.75;100.00;100899.46;106147;1279;60312;-84
2022/05/27 00:09:42;;;;;;;11.10;6.70;;;;;;;13.74;100.00;100898.38;106014;1279;61286;-84
2022/05/27 00:12:09;;;;;;;8.80;4.50;;;;;;;13.75;100.00;100896.06;106005;1279;61277;-84
2022/05/27 00:14:36;;;;;;;15.90;5.50;;;;;;;13.75;100.00;100898.39;105824;1281;73093;-84
2022/05/27 00:17:05;;;;;;;10.80;6.70;;;;;;;13.76;100.00;100896.80;106328;1268;61859;-85
2022/05/27 00:19:32;;;;;;;12.10;6.70;;;;;;;13.77;100.00;100886.77;106138;1279;60038;-85
2022/05/27 00:21:58;;;;;;;10.40;4.20;;;;;;;13.77;100.00;100883.53;106021;1280;74937;-85
2022/05/27 00:24:25;;;;;;;10.10;5.70;;;;;;;13.79;100.00;100883.04;106194;1279;60263;-85
2022/05/27 00:26:52;;;;;;;8.90;5.90;;;;;;;13.80;100.00;100878.96;106251;1279;75514;-86
2022/05/27 00:29:19;;;;;;;9.80;5.20;;;;;;;13.81;100.00;100880.08;105957;1280;62165;-86
2022/05/27 00:31:46;;;;;;;11.10;6.30;;;;;;;13.82;100.00;100879.02;105910;1280;61307;-86
2022/05/27 00:34:20;;;;;;;12.80;5.10;;;;;;;13.84;100.00;100873.61;106571;1279;76583;-84
2022/05/27 00:36:49;;;;;;;7.50;4.30;;;;;;;13.86;100.00;100863.79;105841;1279;71407;-86
2022/05/27 00:39:20;;;;;;;10.20;4.60;;;;;;;13.85;100.00;100864.30;105923;1279;73021;-85
2022/05/27 00:56:11;;;;;;;8.30;5.50;;;;;;;13.77;100.00;100851.91;106068;1268;151145;-86
2022/05/27 00:58:49;;;;;;;8.60;3.70;;;;;;;13.78;100.00;100844.60;106056;1279;61142;-85
2022/05/27 01:01:21;;;;;;;12.90;6.80;;;;;;;13.78;100.00;100842.34;106487;1282;73711;-85
2022/05/27 01:03:49;;;;;;;11.00;5.60;;;;;;;13.79;100.00;100838.21;105978;1280;73015;-86
2022/05/27 01:06:19;;;;;;;12.70;6.30;;;;;;;13.80;100.00;100840.41;106025;1279;73981;-86
2022/05/27 01:08:49;;;;;;;9.80;6.30;;;;;;;13.79;100.00;100834.57;106014;1279;63188;-86
2022/05/27 01:11:51;;;;;;;9.50;5.70;;;;;;;13.80;100.00;100834.16;106102;1281;59325;-87
2022/05/27 01:14:36;;;;;;;7.10;4.90;;;;;;;13.76;100.00;100839.27;106026;1279;75992;-85
2022/05/27 01:17:37;;;;;;;10.50;6.10;;;;;;;13.71;100.00;100835.61;105886;1279;71376;-85
2022/05/27 01:20:30;;;;;;;17.90;6.80;;;;;;;13.66;100.00;100821.99;107747;1279;74186;-85
2022/05/27 01:23:14;;;;;;;7.30;5.00;;;;;;;13.64;100.00;100820.03;106585;1279;62244;-84
2022/05/27 01:26:18;;;;;;;15.30;7.10;;;;;;;13.61;100.00;100816.60;105912;1278;61844;-85
2022/05/27 01:29:00;;;;;;;11.00;5.80;;;;;;;13.58;100.00;100824.16;106104;1279;75009;-85
2022/05/27 01:31:32;;;;;;;12.00;6.40;;;;;;;13.54;100.00;100830.73;105820;1281;71448;-84
2022/05/27 01:34:28;;;;;;;14.00;7.00;;;;;;;13.50;100.00;100830.45;106246;1279;72987;-85
2022/05/27 01:37:09;;;;;;;11.00;7.30;;;;;;;13.46;100.00;100832.71;106242;1279;62366;-84
2022/05/27 01:39:48;;;;;;;9.90;7.40;;;;;;;13.42;100.00;100831.73;106133;1279;62055;-83
2022/05/27 01:42:29;;;;;;;9.30;7.00;;;;;;;13.38;100.00;100834.57;106925;1279;74952;-83
2022/05/27 01:45:02;;;;;;;12.00;7.40;;;;;;;13.33;100.00;100821.88;107279;1279;71546;-82
2022/05/27 01:47:36;;;;;;;6.30;5.20;;;;;;;13.27;100.00;100831.81;106496;1279;73989;-83
2022/05/27 01:50:09;;;;;;;8.00;5.70;;;;;;;13.22;100.00;100833.10;105849;1279;62132;-82
2022/05/27 01:53:10;;;;;;;9.60;6.50;;;;;;;13.19;100.00;100828.55;105575;1281;61732;-82
2022/05/27 01:55:49;;;;;;;7.90;6.30;;;;;;;13.17;100.00;100822.34;105611;1281;76214;-86
2022/05/27 01:58:23;;;;;;;9.30;7.90;;;;;;;13.15;100.00;100822.11;106315;1269;71813;-83
2022/05/27 02:00:50;;;;;;;12.90;7.30;;;;;;;13.13;100.00;100817.91;106090;1279;72987;-83
2022/05/27 02:03:30;;;;;;;10.70;7.40;;;;;;;13.11;100.00;100814.23;106011;1279;61473;-83
2022/05/27 02:06:17;;;;;;;9.80;6.60;;;;;;;13.11;100.00;100815.89;106430;1279;61695;-83
2022/05/27 02:08:53;;;;;;;10.10;6.60;;;;;;;13.11;100.00;100814.70;106948;1279;76218;-83
2022/05/27 02:11:22;;;;;;;12.10;7.60;;;;;;;13.10;100.00;100817.30;106245;1279;70388;-83
2022/05/27 02:14:00;;;;;;;13.80;8.20;;;;;;;13.11;100.00;100823.59;105995;1279;72763;-82
2022/05/27 02:16:36;;;;;;;10.70;6.70;;;;;;;13.10;100.00;100820.50;105998;1279;63178;-82
2022/05/27 02:19:09;;;;;;;11.10;7.80;;;;;;;13.09;100.00;100813.45;105941;1280;61491;-80
2022/05/27 02:21:51;;;;;;;11.50;6.70;;;;;;;13.08;100.00;100809.30;105970;1281;74923;-80
2022/05/27 02:24:28;;;;;;;9.60;7.40;;;;;;;13.06;100.00;100805.02;106988;1279;71441;-82
2022/05/27 02:26:58;;;;;;;12.00;6.90;;;;;;;13.04;100.00;100796.23;106745;1278;72756;-83
2022/05/27 02:29:29;;;;;;;9.20;7.40;;;;;;;13.03;100.00;100801.55;105927;1279;63791;-82
2022/05/27 02:32:23;;;;;;;9.30;7.30;;;;;;;13.02;100.00;100802.59;106202;1279;61248;-83
2022/05/27 02:35:08;;;;;;;11.70;7.40;;;;;;;13.01;100.00;100818.15;105853;1280;74869;-81
2022/05/27 02:37:46;;;;;;;7.60;5.30;;;;;;;12.99;100.00;100841.94;105952;1279;72573;-84
2022/05/27 02:40:19;;;;;;;3.20;2.00;;;;;;;12.84;100.00;100870.39;105925;1279;74635;-82
2022/05/27 02:42:57;;;;;;;3.40;1.50;;;;;;;12.45;100.00;100867.25;106149;1280;63233;-83
2022/05/27 02:45:44;;;;;;;3.50;1.30;;;;;;;12.17;100.00;100860.13;106220;1279;61642;-84
2022/05/27 02:48:29;;;;;;;2.60;1.30;;;;;;;11.89;100.00;100867.85;106106;1279;74776;-84
2022/05/27 02:51:07;;;;;;;;;;;;;;;11.62;100.00;100866.92;106563;1279;71565;-84
2022/05/27 02:53:42;;;;;;;3.80;1.40;;;;;;;11.45;100.00;100870.83;106326;1279;73893;-84
2022/05/27 02:56:57;;;;;;;1.90;1.10;;;;;;;11.34;100.00;100868.62;106195;1279;61991;-82
2022/05/27 02:59:25;;;;;;;2.30;0.90;;;;;;;11.24;100.00;100885.27;106030;1281;61283;-83
2022/05/27 03:01:52;;;;;;;0.80;0.50;;;;;;;11.17;100.00;100881.65;105932;1280;74258;-82
2022/05/27 03:04:20;;;;;;;1.20;0.60;;;;;;;11.11;100.00;100870.38;105963;1281;71408;-83
2022/05/27 03:07:21;;;;;;;2.70;1.00;;;;;;;11.09;100.00;100871.77;105743;1281;72500;-84
2022/05/27 03:09:59;;;;;;;3.90;1.20;;;;;;;11.07;100.00;100869.98;105585;1281;62149;-85
2022/05/27 03:12:53;;;;;;;2.90;1.70;;;;;;;11.07;100.00;100869.52;106073;1280;61408;-84
2022/05/27 03:15:44;;;;;;;3.30;1.30;;;;;;;11.06;100.00;100865.98;105874;1280;74918;-84
2022/05/27 03:18:30;;;;;;;2.10;0.90;;;;;;;11.07;100.00;100864.17;105897;1281;71454;-85
2022/05/27 03:21:26;;;;;;;3.50;1.10;;;;;;;11.08;100.00;100858.52;105802;1280;73044;-83
2022/05/27 03:24:19;;;;;;;3.00;1.60;;;;;;;11.10;100.00;100857.95;105729;1281;62284;-83
2022/05/27 03:26:52;;;;;;;4.20;1.50;;;;;;;11.13;100.00;100859.20;105732;1281;60644;-84
2022/05/27 03:29:42;;;;;;;2.30;1.40;;;;;;;11.16;100.00;100864.33;105862;1281;74933;-84
2022/05/27 03:32:30;;;;;;;2.80;1.90;;;;;;;11.20;100.00;100863.40;105742;1281;72431;-84
2022/05/27 03:35:09;;;;;;;;;;;;;;;11.23;100.00;100857.52;105745;1280;72956;-84
2022/05/27 03:37:55;;;;;;;3.40;2.20;;;;;;;11.25;100.00;100838.75;105926;1281;64307;-84
2022/05/27 03:40:30;;;;;;;4.70;1.70;;;;;;;11.26;100.00;100841.29;106136;1280;61176;-84
2022/05/27 03:42:57;;;;;;;2.40;1.00;;;;;;;11.28;100.00;100842.68;106282;1281;73783;-84
2022/05/27 03:45:24;;;;;;;5.30;1.60;;;;;;;11.29;100.00;100845.92;106386;1279;70398;-84
2022/05/27 03:47:52;;;;;;;3.30;1.50;;;;;;;11.29;100.00;100856.34;106076;1280;72177;-85
2022/05/27 03:50:23;;;;;;;1.90;1.40;;;;;;;11.30;100.00;100849.73;106009;1279;62281;-84
2022/05/27 03:52:54;;;;;;;2.60;2.00;;;;;;;11.30;100.00;100842.20;105888;1280;62429;-84
2022/05/27 03:55:26;;;;;;;3.40;1.40;;;;;;;11.30;100.00;100846.45;105615;1281;75610;-83
2022/05/27 03:57:53;;;;;;;2.60;1.30;;;;;;;11.30;100.00;100859.06;105746;1279;70417;-84
2022/05/27 04:00:20;;;;;;;3.80;1.80;;;;;;;11.29;100.00;100856.48;105708;1280;73984;-83
2022/05/27 04:02:46;;;;;;;2.70;1.70;;;;;;;11.30;100.00;100863.44;105701;1280;62326;-84
2022/05/27 04:05:17;;;;;;;3.10;1.50;;;;;;;11.30;100.00;100866.10;105491;1281;61157;-83
2022/05/27 04:07:45;;;;;;;3.00;1.60;;;;;;;11.32;100.00;100869.48;106129;1276;74787;-83
2022/05/27 04:10:13;;;;;;;2.20;1.30;;;;;;;11.33;100.00;100874.08;106025;1279;70511;-84
2022/05/27 04:12:39;;;;;;;2.70;1.60;;;;;;;11.35;100.00;100876.98;106009;1279;74014;-84
2022/05/27 04:15:07;;;;;;;2.00;1.30;;;;;;;11.38;100.00;100887.66;105968;1279;61528;-84
2022/05/27 04:17:33;;;;;;;2.20;1.60;;;;;;;11.40;100.00;100884.42;106020;1279;61283;-84
2022/05/27 04:20:06;;;;;;;4.80;2.00;;;;;;;11.43;100.00;100881.63;105840;1279;75952;-83
2022/05/27 04:22:33;;;;;;;2.70;1.70;;;;;;;11.48;100.00;100880.44;105896;1279;72675;-83
2022/05/27 04:25:01;;;;;;;3.80;1.80;;;;;;;11.51;100.00;100882.38;105805;1280;73101;-83
2022/05/27 04:27:28;;;;;;;3.30;2.00;;;;;;;11.54;100.00;100880.77;105747;1281;62230;-84
2022/05/27 04:29:55;;;;;;;4.10;2.00;;;;;;;11.57;100.00;100894.55;105929;1279;61704;-85
2022/05/27 04:32:23;;;;;;;3.90;2.50;;;;;;;11.60;100.00;100899.91;105677;1280;60212;-86
2022/05/27 04:34:49;;;;;;;4.40;2.30;;;;;;;11.63;100.00;100894.58;106595;1279;71340;-84
2022/05/27 04:37:18;;;;;;;3.50;2.30;;;;;;;11.66;100.00;100890.40;105936;1279;73214;-85
2022/05/27 04:39:45;;;;;;;3.20;2.30;;;;;;;11.68;100.00;100890.98;105795;1280;61354;-84
2022/05/27 04:42:12;;;;;;;3.70;2.40;;;;;;;11.69;100.00;100892.61;106017;1279;61243;-85
2022/05/27 04:44:39;;;;;;;7.60;3.80;;;;;;;11.71;100.00;100902.73;105963;1279;74971;-83
2022/05/27 04:47:07;;;;;;;4.90;2.90;;;;;;;11.71;100.00;100902.85;106086;1279;71392;-83
2022/05/27 04:52:29;;;;;;;5.50;3.20;;;;;;;11.74;100.00;100907.98;105870;1280;62207;-83
2022/05/27 04:54:58;;;;;;;4.70;2.70;;;;;;;11.75;100.00;100909.84;105736;1279;61957;-84
2022/05/27 04:57:39;;;;;;;7.80;2.80;;;;;;;11.76;100.00;100899.60;106251;1279;76180;-84
2022/05/27 05:00:13;;;;;;;5.20;2.90;;;;;;;11.77;100.00;100899.73;105790;1280;71404;-84
2022/05/27 05:02:41;;;;;;;5.40;2.70;;;;;;;11.78;100.00;100899.79;105668;1280;72952;-84
2022/05/27 05:05:14;;;;;;;8.20;3.20;;;;;;;11.77;100.00;100904.35;105797;1280;63316;-83
2022/05/27 05:07:42;;;;;;;4.60;3.00;;;;;;;11.78;100.00;100906.00;105763;1280;61258;-83
2022/05/27 05:10:11;;;;;;;4.60;2.70;;;;;;;11.81;100.00;100911.05;106354;1280;76233;-84
2022/05/27 05:12:38;;;;;;;4.80;2.70;;;;;;;11.88;100.00;100917.96;107699;1280;70856;-83
2022/05/27 05:15:05;;;;;;;6.50;3.00;;;;;;;11.94;100.00;100916.69;106566;1280;72978;-85
2022/05/27 05:17:32;;;;;;;5.30;2.60;;;;;;;12.02;100.00;100918.96;105780;1281;63452;-83
2022/05/27 05:19:58;;;;;;;3.80;2.60;;;;;;;12.10;100.00;100922.69;105872;1281;61267;-83
2022/05/27 05:22:25;;;;;;;6.50;2.60;;;;;;;12.16;100.00;100922.34;105817;1280;60338;-83
2022/05/27 05:24:55;;;;;;;4.30;2.70;;;;;;;12.22;100.00;100922.68;105873;1281;61294;-82
2022/05/27 05:27:25;;;;;;;5.70;3.10;;;;;;;12.26;100.00;100917.79;105916;1280;73327;-83
2022/05/27 05:29:53;;;;;;;4.50;2.50;;;;;;;12.33;100.00;100921.55;105771;1281;61326;-82
2022/05/27 05:32:20;;;;;;;5.70;2.40;;;;;;;12.38;100.00;100924.25;105770;1281;61909;-83
2022/05/27 05:34:51;;;;;;;8.30;2.90;;;;;;;12.41;100.00;100925.80;105837;1279;75252;-83
2022/05/27 05:37:18;;;;;;;7.10;3.50;;;;;;;12.45;100.00;100924.43;105847;1281;71259;-83
2022/05/27 05:39:45;;;;;;;6.20;2.90;;;;;;;12.51;100.00;100918.38;105870;1280;72900;-83
2022/05/27 05:42:12;;;;;;;4.50;2.20;;;;;;;12.55;100.00;100926.88;105794;1281;61926;-83
2022/05/27 05:44:38;;;;;;;5.00;2.20;;;;;;;12.63;100.00;100926.14;105826;1281;61603;-83
2022/05/27 05:47:06;;;;;;;7.50;2.70;;;;;;;12.71;100.00;100923.30;105900;1280;61186;-83
2022/05/27 05:49:36;;;;;;;4.80;2.60;;;;;;;12.75;100.00;100919.95;105836;1281;71172;-83
2022/05/27 05:52:03;;;;;;;9.30;2.20;;;;;;;12.77;100.00;100920.56;105934;1281;73054;-82
2022/05/27 05:54:31;;;;;;;4.90;2.50;;;;;;;12.79;100.00;100925.50;105548;1284;62044;-83
2022/05/27 05:57:02;;;;;;;7.60;2.50;;;;;;;12.74;100.00;100929.11;105950;1279;61230;-83
2022/05/27 05:59:31;;;;;;;3.70;2.10;;;;;;;12.74;100.00;100926.16;106460;1280;74083;-83
2022/05/27 06:01:59;;;;;;;6.10;1.90;;;;;;;12.69;100.00;100928.38;106057;1281;71583;-83
2022/05/27 06:04:26;;;;;;;4.90;2.40;;;;;;;12.65;100.00;100929.19;105838;1281;73014;-83
2022/05/27 06:06:53;;;;;;;4.10;1.90;;;;;;;12.64;100.00;100927.83;105958;1281;61947;-83
2022/05/27 06:09:25;;;;;;;6.00;2.20;;;;;;;12.59;100.00;100932.17;105922;1281;61171;-84
2022/05/27 06:11:54;;;;;;;10.80;1.80;;;;;;;12.57;100.00;100933.13;105916;1281;75958;-83
2022/05/27 06:14:21;;;;;;;5.80;2.50;;;;;;;12.56;100.00;100933.27;106113;1280;70804;-85
2022/05/27 06:16:48;;;;;;;7.60;2.10;;;;;;;12.59;100.00;100927.58;106069;1280;72911;-83
2022/05/27 06:19:15;;;;;;;4.90;1.90;;;;;;;12.67;100.00;100923.04;105922;1281;64445;-83
2022/05/27 06:21:41;;;;;;;6.50;1.80;;;;;;;12.78;100.00;100928.97;105944;1281;61215;-82
2022/05/27 06:24:10;;;;;;;4.90;1.90;;;;;;;12.84;100.00;100937.92;105788;1281;75058;-83
2022/05/27 06:26:38;;;;;;;4.20;2.00;;;;;;;12.88;100.00;100936.92;106026;1281;72612;-83
2022/05/27 06:34:36;;;;;;;5.50;1.80;;;;;;;13.27;100.00;100942.96;106130;1281;62176;-83
2022/05/27 06:37:07;;;;;;;8.00;2.00;;;;;;;13.31;100.00;100945.01;105948;1281;76556;-83
2022/05/27 06:39:38;;;;;;;2.90;1.00;;;;;;;13.31;97.64;100947.21;105850;1281;71643;-83
2022/05/27 06:42:08;;;;;;;4.90;1.50;;;;;;;13.26;95.12;100952.16;105816;1281;74623;-82
2022/05/27 06:44:55;;;;;;;5.40;1.50;;;;;;;13.28;93.81;100948.72;105718;1281;64330;-83
2022/05/27 06:47:22;;;;;;;4.90;1.30;;;;;;;13.33;90.86;100949.65;105787;1281;61165;-82
2022/05/27 06:49:49;;;;;;;4.20;1.20;;;;;;;13.36;90.97;100951.05;105827;1281;76128;-83
2022/05/27 06:52:16;;;;;;;3.40;1.20;;;;;;;13.45;92.78;100946.34;105836;1281;61151;-83
2022/05/27 06:54:42;;;;;;;3.80;1.40;;;;;;;13.62;92.56;100946.70;105649;1281;73999;-83
2022/05/27 06:57:10;;;;;;;6.00;1.70;;;;;;;13.82;92.89;100951.21;105985;1280;61737;-83
2022/05/27 06:59:37;;;;;;;8.80;1.60;;;;;;;13.82;89.82;100949.59;105776;1281;61927;-84
2022/05/27 07:02:05;;;;;;;3.60;1.30;;;;;;;13.91;93.30;100940.96;106022;1279;75254;-84
2022/05/27 07:04:32;;;;;;;5.50;1.50;;;;;;;14.00;94.10;100955.52;106010;1281;71069;-83
2022/05/27 07:06:59;;;;;;;6.50;1.60;;;;;;;14.02;91.82;100955.70;106070;1281;61364;-83
2022/05/27 07:09:25;;;;;;;7.40;1.70;;;;;;;14.01;89.79;100957.02;106076;1281;61936;-83
2022/05/27 07:11:55;;;;;;;5.70;1.70;;;;;;;14.05;89.27;100960.98;106134;1281;61489;-84
2022/05/27 07:14:22;;;;;;;7.20;2.10;;;;;;;14.17;87.26;100962.70;106092;1279;76190;-84
2022/05/27 07:16:49;;;;;;;2.60;1.10;;;;;;;14.30;85.56;100951.27;105994;1281;72325;-83
2022/05/27 07:19:34;;;;;;;6.60;1.50;;;;;;;14.42;85.55;100956.50;106195;1280;72915;-84
2022/05/27 07:24:37;;;;;;;3.10;1.30;;;;;;;14.36;76.93;100958.05;106157;1267;61704;-84
2022/05/27 07:27:06;;;;;;;4.60;1.40;;;;;;;14.38;74.86;100956.05;105903;1281;74963;-84
2022/05/27 07:29:36;;;;;;;3.80;1.20;;;;;;;14.48;73.41;100949.06;105881;1281;72501;-85
2022/05/27 07:32:14;;;;;;;;;;;;;;;14.54;71.48;100947.40;105877;1281;72073;-84
2022/05/27 07:34:52;;;;;;;3.70;1.20;;;;;;;14.54;70.76;100953.04;105878;1280;63346;-85
2022/05/27 07:37:31;;;;;;;8.70;1.90;;;;;;;14.55;70.91;100954.23;105928;1281;62897;-84
2022/05/27 07:40:09;;;;;;;8.60;1.50;;;;;;;14.52;71.34;100954.56;105987;1281;74668;-85
2022/05/27 07:42:36;;;;;;;2.30;0.90;;;;;;;14.43;68.25;100956.38;106312;1281;72000;-84
2022/05/27 07:45:08;;;;;;;4.00;1.30;;;;;;;14.34;69.61;100961.48;106319;1281;73493;-83
2022/05/27 07:47:35;;;;;;;6.30;1.50;;;;;;;14.24;69.29;100961.68;106254;1281;62089;-83
2022/05/27 07:50:03;;;;;;;4.30;1.60;;;;;;;14.22;68.71;100950.55;106425;1281;61185;-84
2022/05/27 07:52:30;;;;;;;6.50;1.90;;;;;;;14.31;68.40;100957.27;106263;1281;75242;-85
2022/05/27 07:54:56;;;;;;;5.70;1.40;;;;;;;14.34;69.47;100948.30;106545;1280;71776;-83
2022/05/27 07:57:28;;;;;;;7.50;1.70;;;;;;;14.38;69.48;100956.02;106452;1280;73116;-84
2022/05/27 07:59:59;;;;;;;10.10;1.90;;;;;;;14.47;68.72;100953.66;106292;1281;62244;-83
2022/05/27 08:02:29;;;;;;;9.10;2.40;;;;;;;14.65;67.60;100941.05;106051;1281;61483;-84
2022/05/27 08:07:55;;;;;;;8.30;1.20;;;;;;;14.83;64.32;100947.67;107577;1280;70615;-83
2022/05/27 08:10:25;;;;;;;4.40;1.00;;;;;;;14.95;62.65;100946.52;106148;1281;72449;-85
2022/05/27 08:12:59;;;;;;;9.00;2.40;;;;;;;15.13;63.99;100944.63;106162;1280;62173;-85
2022/05/27 08:15:34;;;;;;;5.30;1.60;;;;;;;15.28;63.19;100954.00;106898;1279;61410;-84
2022/05/27 08:18:01;;;;;;;5.40;1.30;;;;;;;15.23;61.47;100946.11;106905;1268;76412;-84
2022/05/27 08:20:39;;;;;;;4.30;1.20;;;;;;;15.26;59.25;100946.17;106058;1268;71192;-84
2022/05/27 08:23:16;;;;;;;6.80;1.70;;;;;;;15.28;59.14;100945.98;105658;1281;73558;-84
2022/05/27 08:25:55;;;;;;;4.00;1.30;;;;;;;15.45;58.27;100948.58;105610;1281;62768;-85
2022/05/27 08:28:30;;;;;;;6.40;1.20;;;;;;;15.56;55.13;100948.08;105697;1280;61223;-86
2022/05/27 08:30:58;;;;;;;4.20;1.20;;;;;;;15.62;55.85;100952.86;105818;1284;76277;-85
2022/05/27 08:38:00;;;;;;;6.90;1.50;;;;;;;15.67;54.70;100941.06;105985;1281;71489;-84
2022/05/27 08:39:12;;;;;;;5.40;1.00;;;;;;;15.86;53.88;100932.98;106039;1281;61502;-84
2022/05/27 08:41:51;;;;;;;3.70;1.40;;;;;;;15.90;54.07;100933.52;105996;1281;61932;-85
2022/05/27 08:44:39;;;;;;;6.40;1.70;;;;;;;15.87;53.38;100922.57;107169;1281;74886;-85
2022/05/27 08:47:17;;;;;;;5.30;0.90;;;;;;;16.05;54.63;100930.44;105844;1281;70156;-84
2022/05/27 08:49:51;;;;;;;9.00;2.20;;;;;;;16.07;54.79;100945.43;105981;1281;72988;-83
2022/05/27 08:52:42;;;;;;;5.00;1.40;;;;;;;16.05;53.16;100940.52;105797;1281;60463;-83
2022/05/27 09:01:16;;;;;;;7.70;1.00;;;;;;;16.11;52.89;100937.20;106442;1268;71418;-82
2022/05/27 09:03:54;;;;;;;4.10;1.00;;;;;;;16.04;50.19;100939.75;105920;1280;74180;-84
2022/05/27 09:06:47;;;;;;;7.50;1.10;;;;;;;16.04;50.55;100939.05;105497;1281;61545;-83
2022/05/27 09:12:08;;;;;;;5.20;1.10;;;;;;;15.95;51.01;100934.14;106223;1279;76210;-85
2022/05/27 09:14:39;;;;;;;6.10;1.60;;;;;;;16.00;50.59;100941.39;106209;1279;71378;-84
2022/05/27 09:17:24;;;;;;;3.80;1.00;;;;;;;16.02;50.50;100935.59;106301;1280;73000;-85
2022/05/27 09:20:02;;;;;;;2.60;0.90;;;;;;;16.11;47.93;100953.46;105924;1281;62599;-84
2022/05/27 09:22:50;;;;;;;6.00;1.40;;;;;;;16.30;49.93;100931.96;105811;1281;61634;-84
2022/05/27 09:25:48;;;;;;;6.30;1.50;;;;;;;16.57;49.99;100920.39;105940;1279;75840;-84
2022/05/27 09:28:17;;;;;;;5.70;1.20;;;;;;;16.77;49.95;100919.00;106574;1279;71768;-84
2022/05/27 09:43:43;;;;;;;5.40;1.10;;;;;;;16.82;48.31;100928.98;105987;1269;153842;-87
2022/05/27 09:46:18;;;;;;;6.70;0.80;;;;;;;16.92;49.03;100922.73;106437;1279;74111;-84
2022/05/27 09:49:01;;;;;;;6.20;1.20;;;;;;;16.98;47.86;100925.93;106271;1281;61723;-84
2022/05/27 09:51:31;;;;;;;7.20;1.00;;;;;;;16.87;48.98;100926.25;106510;1279;61280;-85
2022/05/27 09:54:21;;;;;;;5.40;1.30;;;;;;;16.62;49.06;100926.16;106532;1281;74966;-85
2022/05/27 09:57:13;;;;;;;4.60;1.00;;;;;;;16.40;50.32;100933.16;106356;1281;71770;-88
2022/05/27 09:59:45;;;;;;;8.90;1.80;;;;;;;16.24;51.30;100936.25;106339;1280;72721;-86
2022/05/27 10:02:34;;;;;;;4.80;1.40;;;;;;;16.16;51.33;100941.45;106555;1279;62146;-85
2022/05/27 10:05:25;;;;;;;3.80;1.20;;;;;;;16.10;52.41;100934.11;106550;1279;62915;-85
2022/05/27 10:08:00;;;;;;;6.00;1.60;;;;;;;16.36;54.80;100934.52;106346;1281;74924;-84
2022/05/27 10:10:35;;;;;;;3.40;1.30;;;;;;;16.41;55.42;100940.70;106873;1279;72418;-83
2022/05/27 10:13:20;;;;;;;7.60;1.30;;;;;;;16.39;55.19;100959.20;107382;1281;74711;-86
2022/05/27 10:15:46;;;;;;;4.10;1.20;;;;;;;16.36;55.94;100946.88;107858;1279;59204;-84
2022/05/27 10:18:22;;;;;;;6.20;1.40;;;;;;;16.34;55.79;100945.52;107696;1281;60690;-85
2022/05/27 10:20:52;;;;;;;6.60;1.50;;;;;;;16.35;55.92;100927.80;107695;1279;75464;-88
2022/05/27 10:23:33;;;;;;;6.00;1.80;;;;;;;16.40;57.17;100935.30;107785;1281;71713;-85
2022/05/27 10:26:34;;;;;;;5.50;1.30;;;;;;;16.47;55.59;100924.61;106696;1280;73457;-87
2022/05/27 10:29:37;;;;;;;6.70;1.90;;;;;;;16.58;55.73;100921.72;106338;1279;60927;-83
2022/05/27 10:32:04;;;;;;;6.00;1.10;;;;;;;16.86;54.28;100909.27;106335;1281;61709;-86
2022/05/27 10:34:40;;;;;;;6.50;1.20;;;;;;;17.01;53.25;100908.97;106019;1283;76048;-82
2022/05/27 10:37:38;;;;;;;5.40;1.50;;;;;;;17.22;52.99;100916.85;106221;1281;72739;-83
2022/05/27 10:40:32;;;;;;;5.40;1.20;;;;;;;16.90;51.16;100925.69;106462;1281;73687;-85
2022/05/27 10:43:38;;;;;;;5.00;1.00;;;;;;;16.51;52.28;100917.36;106461;1281;61577;-83
2022/05/27 10:46:19;;;;;;;7.90;1.40;;;;;;;16.41;53.83;100913.89;106329;1281;61272;-83
2022/05/27 10:48:57;;;;;;;10.20;1.90;;;;;;;16.41;54.77;100917.09;106389;1279;76039;-87
2022/05/27 10:51:42;;;;;;;4.70;1.50;;;;;;;16.46;55.74;100918.40;106372;1279;73833;-83
2022/05/27 10:54:12;;;;;;;;;;;;;;;16.56;54.87;100911.54;106199;1281;73968;-84
2022/05/27 11:03:37;;;;;;;3.80;1.20;;;;;;;16.82;50.14;100928.58;106284;1279;75235;-84
2022/05/27 11:06:25;;;;;;;7.20;2.20;;;;;;;17.00;46.68;100918.54;106301;1280;72414;-82
2022/05/27 11:09:12;;;;;;;5.70;1.00;;;;;;;17.16;47.43;100913.64;106236;1281;73113;-83
2022/05/27 11:11:57;;;;;;;6.90;1.40;;;;;;;17.38;46.65;100906.52;106225;1279;61324;-83
2022/05/27 11:17:48;;;;;;;3.20;1.00;;;;;;;17.28;45.54;100928.94;106812;1279;74978;-83
2022/05/27 11:20:41;;;;;;;4.60;1.40;;;;;;;17.32;43.58;100919.06;106244;1281;70452;-86
2022/05/27 11:23:20;;;;;;;6.40;1.20;;;;;;;17.43;43.59;100928.45;106380;1279;73443;-84
2022/05/27 11:26:07;;;;;;;9.50;2.50;;;;;;;17.49;44.37;100934.08;106385;1279;61012;-84
2022/05/27 11:29:07;;;;;;;5.80;1.40;;;;;;;17.32;42.22;100951.81;106468;1280;61049;-83
2022/05/27 11:32:11;;;;;;;4.40;1.20;;;;;;;17.41;43.14;100931.75;106605;1279;76583;-83
2022/05/27 11:34:53;;;;;;;3.20;1.00;;;;;;;17.70;41.88;100955.09;106499;1279;71893;-83
2022/05/27 11:37:47;;;;;;;3.40;1.10;;;;;;;17.54;40.43;100954.73;106505;1279;72913;-85
2022/05/27 11:40:37;;;;;;;2.80;0.90;;;;;;;17.38;41.11;100944.15;106536;1279;61702;-82
2022/05/27 11:43:23;;;;;;;6.40;1.00;;;;;;;17.32;41.74;100937.35;106956;1280;61118;-82
2022/05/27 11:46:06;;;;;;;5.00;1.20;;;;;;;17.14;40.47;100946.65;106658;1281;75000;-83
2022/05/27 11:49:16;;;;;;;4.80;1.60;;;;;;;17.24;41.04;100951.19;106384;1281;72399;-83
2022/05/27 11:52:42;;;;;;;6.10;1.60;;;;;;;17.33;40.08;100959.58;105946;1281;73184;-83
2022/05/27 11:55:42;;;;;;;3.30;0.80;;;;;;;17.59;40.67;100966.38;106435;1280;60807;-86
2022/05/27 11:58:18;;;;;;;2.60;0.80;;;;;;;17.60;39.17;100946.61;106870;1280;61170;-84
2022/05/27 12:01:10;;;;;;;6.80;1.60;;;;;;;17.63;38.83;100965.20;106427;1279;76383;-83
2022/05/27 12:03:49;;;;;;;4.00;0.80;;;;;;;17.84;39.47;100940.69;106288;1280;71916;-81
2022/05/27 12:06:43;;;;;;;3.80;2.10;;;;;;;18.24;39.14;100947.83;106408;1279;73614;-83
2022/05/27 12:09:21;;;;;;;4.50;0.70;;;;;;;18.53;38.07;100954.96;106515;1279;61365;-83
2022/05/27 12:11:54;;;;;;;7.00;1.50;;;;;;;18.31;38.60;100937.52;106944;1281;60383;-83
2022/05/27 12:14:31;;;;;;;5.40;1.10;;;;;;;18.04;38.78;100942.91;106424;1281;74955;-85
2022/05/27 12:17:02;;;;;;;5.70;0.90;;;;;;;18.30;38.27;100939.02;106873;1281;71516;-84
2022/05/27 12:19:33;;;;;;;4.00;1.00;;;;;;;18.74;38.57;100935.64;106527;1279;72956;-85
2022/05/27 12:22:10;;;;;;;3.70;1.50;;;;;;;19.04;37.14;100934.52;106516;1281;61293;-83
2022/05/27 12:24:41;;;;;;;3.80;1.30;;;;;;;19.15;36.77;100925.74;106678;1281;61066;-85
2022/05/27 12:27:12;;;;;;;5.60;1.40;;;;;;;19.05;38.17;100921.00;106220;1279;75139;-83
2022/05/27 12:29:40;;;;;;;6.30;1.30;;;;;;;19.21;37.25;100949.91;106434;1280;71164;-82
2022/05/27 12:32:08;;;;;;;7.00;1.40;;;;;;;19.48;37.43;100928.10;106572;1281;72944;-83
2022/05/27 12:34:38;;;;;;;3.40;1.00;;;;;;;19.90;37.51;100909.40;106231;1281;61304;-83
2022/05/27 12:37:18;;;;;;;3.90;1.30;;;;;;;20.28;36.52;100910.46;106507;1281;61264;-82
2022/05/27 12:39:47;;;;;;;5.60;1.10;;;;;;;20.68;35.23;100915.98;106679;1281;74663;-82
2022/05/27 12:42:23;;;;;;;4.90;1.30;;;;;;;20.92;36.22;100904.71;106359;1281;72005;-84
2022/05/27 12:44:50;;;;;;;6.60;1.90;;;;;;;20.75;35.29;100928.71;106412;1281;72843;-84
2022/05/27 12:47:30;;;;;;;4.40;1.20;;;;;;;20.71;35.80;100906.70;106323;1281;61291;-83
2022/05/27 12:50:03;;;;;;;5.50;1.20;;;;;;;20.58;36.73;100908.83;106198;1281;61115;-83
2022/05/27 12:52:29;;;;;;;3.70;1.20;;;;;;;20.24;36.46;100914.92;106212;1281;76036;-82
2022/05/27 12:54:56;;;;;;;7.00;1.10;;;;;;;19.66;36.98;100917.91;106425;1281;61179;-81